sensor_id;sensor_type;location;lat;lon;timestamp;temperature;humidity
27559;DHT22;15002;52.028;5.670;2023-08-30T00:02:23;17.90;99.90
27559;DHT22;15002;52.028;5.670;2023-08-30T00:04:49;17.90;99.90
27559;DHT22;15002;52.028;5.670;2023-08-30T00:07:15;18.00;99.90
27559;DHT22;15002;52.028;5.670;2023-08-30T00:09:40;18.10;99.90
27559;DHT22;15002;52.028;5.670;2023-08-30T00:12:06;18.10;99.90
27559;DHT22;15002;52.028;5.670;2023-08-30T00:14:32;18.10;99.90
27559;DHT22;15002;52.028;5.670;2023-08-30T00:16:58;18.10;99.90
27559;DHT22;15002;52.028;5.670;2023-08-30T00:19:23;18.10;99.90
27559;DHT22;15002;52.028;5.670;2023-08-30T00:21:49;18.10;99.90
27559;DHT22;15002;52.028;5.670;2023-08-30T00:24:15;17.90;99.90
27559;DHT22;15002;52.028;5.670;2023-08-30T00:26:40;18.00;99.90
27559;DHT22;15002;52.028;5.670;2023-08-30T00:29:06;18.10;99.90
27559;DHT22;15002;52.028;5.670;2023-08-30T00:31:31;18.20;99.90
27559;DHT22;15002;52.028;5.670;2023-08-30T00:33:57;18.10;99.90
27559;DHT22;15002;52.028;5.670;2023-08-30T00:36:22;18.00;99.90
27559;DHT22;15002;52.028;5.670;2023-08-30T00:38:48;17.80;99.90
27559;DHT22;15002;52.028;5.670;2023-08-30T00:41:14;17.70;99.90
27559;DHT22;15002;52.028;5.670;2023-08-30T00:43:40;17.70;99.90
27559;DHT22;15002;52.028;5.670;2023-08-30T00:46:06;17.70;99.90
27559;DHT22;15002;52.028;5.670;2023-08-30T00:48:31;17.50;99.90
27559;DHT22;15002;52.028;5.670;2023-08-30T00:50:57;17.40;99.90
27559;DHT22;15002;52.028;5.670;2023-08-30T00:53:23;17.40;99.90
27559;DHT22;15002;52.028;5.670;2023-08-30T00:55:48;17.50;99.90
27559;DHT22;15002;52.028;5.670;2023-08-30T00:58:14;17.50;99.90
27559;DHT22;15002;52.028;5.670;2023-08-30T01:00:40;17.70;99.90
27559;DHT22;15002;52.028;5.670;2023-08-30T01:03:06;17.70;99.90
27559;DHT22;15002;52.028;5.670;2023-08-30T01:05:35;17.60;99.90
27559;DHT22;15002;52.028;5.670;2023-08-30T01:08:01;17.60;99.90
27559;DHT22;15002;52.028;5.670;2023-08-30T01:10:49;17.60;99.90
27559;DHT22;15002;52.028;5.670;2023-08-30T01:13:19;17.50;99.90
27559;DHT22;15002;52.028;5.670;2023-08-30T01:15:47;17.60;99.90
27559;DHT22;15002;52.028;5.670;2023-08-30T01:18:17;17.40;99.90
27559;DHT22;15002;52.028;5.670;2023-08-30T01:20:44;17.50;99.90
27559;DHT22;15002;52.028;5.670;2023-08-30T01:23:23;17.40;99.90
27559;DHT22;15002;52.028;5.670;2023-08-30T01:28:26;17.40;99.90
27559;DHT22;15002;52.028;5.670;2023-08-30T01:30:54;17.30;99.90
27559;DHT22;15002;52.028;5.670;2023-08-30T01:33:21;17.30;99.90
27559;DHT22;15002;52.028;5.670;2023-08-30T01:35:47;17.20;99.90
27559;DHT22;15002;52.028;5.670;2023-08-30T01:38:13;17.20;99.90
27559;DHT22;15002;52.028;5.670;2023-08-30T01:40:42;17.30;99.90
27559;DHT22;15002;52.028;5.670;2023-08-30T01:43:08;17.40;99.90
27559;DHT22;15002;52.028;5.670;2023-08-30T01:45:39;17.40;99.90
27559;DHT22;15002;52.028;5.670;2023-08-30T01:48:07;17.50;99.90
27559;DHT22;15002;52.028;5.670;2023-08-30T01:50:34;17.50;99.90
27559;DHT22;15002;52.028;5.670;2023-08-30T01:53:00;17.60;99.90
27559;DHT22;15002;52.028;5.670;2023-08-30T01:55:28;17.80;99.90
27559;DHT22;15002;52.028;5.670;2023-08-30T01:57:55;17.70;99.90
27559;DHT22;15002;52.028;5.670;2023-08-30T02:00:20;17.60;99.90
27559;DHT22;15002;52.028;5.670;2023-08-30T02:02:47;17.70;99.90
27559;DHT22;15002;52.028;5.670;2023-08-30T02:05:13;17.80;99.90
27559;DHT22;15002;52.028;5.670;2023-08-30T02:10:17;17.50;99.90
27559;DHT22;15002;52.028;5.670;2023-08-30T02:12:49;17.60;99.90
27559;DHT22;15002;52.028;5.670;2023-08-30T02:15:17;17.50;99.90
27559;DHT22;15002;52.028;5.670;2023-08-30T02:17:44;17.60;99.90
27559;DHT22;15002;52.028;5.670;2023-08-30T02:20:10;17.60;99.90
27559;DHT22;15002;52.028;5.670;2023-08-30T02:22:36;17.60;99.90
27559;DHT22;15002;52.028;5.670;2023-08-30T02:25:02;17.70;99.90
27559;DHT22;15002;52.028;5.670;2023-08-30T02:27:31;17.80;99.90
27559;DHT22;15002;52.028;5.670;2023-08-30T02:29:57;17.70;99.90
27559;DHT22;15002;52.028;5.670;2023-08-30T02:32:22;17.70;99.90
27559;DHT22;15002;52.028;5.670;2023-08-30T02:34:51;17.50;99.90
27559;DHT22;15002;52.028;5.670;2023-08-30T02:37:17;17.50;99.90
27559;DHT22;15002;52.028;5.670;2023-08-30T02:39:42;17.50;99.90
27559;DHT22;15002;52.028;5.670;2023-08-30T02:42:08;17.60;99.90
27559;DHT22;15002;52.028;5.670;2023-08-30T02:44:34;17.70;99.90
27559;DHT22;15002;52.028;5.670;2023-08-30T02:46:59;17.60;99.90
27559;DHT22;15002;52.028;5.670;2023-08-30T02:49:25;17.60;99.90
27559;DHT22;15002;52.028;5.670;2023-08-30T02:51:51;17.60;99.90
27559;DHT22;15002;52.028;5.670;2023-08-30T02:54:16;17.40;99.90
27559;DHT22;15002;52.028;5.670;2023-08-30T02:56:44;17.40;99.90
27559;DHT22;15002;52.028;5.670;2023-08-30T02:59:10;17.70;99.90
27559;DHT22;15002;52.028;5.670;2023-08-30T03:01:37;17.60;99.90
27559;DHT22;15002;52.028;5.670;2023-08-30T03:04:05;17.70;99.90
27559;DHT22;15002;52.028;5.670;2023-08-30T03:06:32;17.70;99.90
27559;DHT22;15002;52.028;5.670;2023-08-30T03:08:58;17.80;99.90
27559;DHT22;15002;52.028;5.670;2023-08-30T03:11:23;17.90;99.90
27559;DHT22;15002;52.028;5.670;2023-08-30T03:13:49;18.10;99.90
27559;DHT22;15002;52.028;5.670;2023-08-30T03:16:16;18.00;99.90
27559;DHT22;15002;52.028;5.670;2023-08-30T03:18:43;17.90;99.90
27559;DHT22;15002;52.028;5.670;2023-08-30T03:21:09;17.80;99.90
27559;DHT22;15002;52.028;5.670;2023-08-30T03:23:35;17.80;99.90
27559;DHT22;15002;52.028;5.670;2023-08-30T03:26:11;18.00;99.90
27559;DHT22;15002;52.028;5.670;2023-08-30T03:28:38;17.90;99.90
27559;DHT22;15002;52.028;5.670;2023-08-30T03:31:22;18.00;99.90
27559;DHT22;15002;52.028;5.670;2023-08-30T03:33:48;17.90;99.90
27559;DHT22;15002;52.028;5.670;2023-08-30T03:36:17;17.90;99.90
27559;DHT22;15002;52.028;5.670;2023-08-30T03:38:43;17.90;99.90
27559;DHT22;15002;52.028;5.670;2023-08-30T03:41:10;17.60;99.90
27559;DHT22;15002;52.028;5.670;2023-08-30T03:43:36;17.60;99.90
27559;DHT22;15002;52.028;5.670;2023-08-30T03:46:02;17.40;99.90
27559;DHT22;15002;52.028;5.670;2023-08-30T03:48:29;17.60;99.90
27559;DHT22;15002;52.028;5.670;2023-08-30T03:50:55;17.50;99.90
27559;DHT22;15002;52.028;5.670;2023-08-30T03:53:21;17.50;99.90
27559;DHT22;15002;52.028;5.670;2023-08-30T03:55:47;17.60;99.90
27559;DHT22;15002;52.028;5.670;2023-08-30T03:58:12;17.60;99.90
27559;DHT22;15002;52.028;5.670;2023-08-30T04:00:39;17.50;99.90
27559;DHT22;15002;52.028;5.670;2023-08-30T04:03:08;17.40;99.90
27559;DHT22;15002;52.028;5.670;2023-08-30T04:05:35;17.40;99.90
27559;DHT22;15002;52.028;5.670;2023-08-30T04:08:02;17.40;99.90
27559;DHT22;15002;52.028;5.670;2023-08-30T04:10:28;17.40;99.90
27559;DHT22;15002;52.028;5.670;2023-08-30T04:12:53;17.30;99.90
27559;DHT22;15002;52.028;5.670;2023-08-30T04:15:19;17.20;99.90
27559;DHT22;15002;52.028;5.670;2023-08-30T04:17:45;17.20;99.90
27559;DHT22;15002;52.028;5.670;2023-08-30T04:20:11;17.20;99.90
27559;DHT22;15002;52.028;5.670;2023-08-30T04:22:36;17.20;99.90
27559;DHT22;15002;52.028;5.670;2023-08-30T04:25:03;17.10;99.90
27559;DHT22;15002;52.028;5.670;2023-08-30T04:27:30;17.00;99.90
27559;DHT22;15002;52.028;5.670;2023-08-30T04:29:56;17.20;99.90
27559;DHT22;15002;52.028;5.670;2023-08-30T04:32:21;16.90;99.90
27559;DHT22;15002;52.028;5.670;2023-08-30T04:34:47;16.90;99.90
27559;DHT22;15002;52.028;5.670;2023-08-30T04:37:13;16.90;99.90
27559;DHT22;15002;52.028;5.670;2023-08-30T04:39:40;16.70;99.90
27559;DHT22;15002;52.028;5.670;2023-08-30T04:42:06;16.70;99.90
27559;DHT22;15002;52.028;5.670;2023-08-30T04:44:31;16.70;99.90
27559;DHT22;15002;52.028;5.670;2023-08-30T04:46:57;16.70;99.90
27559;DHT22;15002;52.028;5.670;2023-08-30T04:49:23;16.60;99.90
27559;DHT22;15002;52.028;5.670;2023-08-30T04:51:50;16.70;99.90
27559;DHT22;15002;52.028;5.670;2023-08-30T04:54:16;16.70;99.90
27559;DHT22;15002;52.028;5.670;2023-08-30T04:56:42;16.60;99.90
27559;DHT22;15002;52.028;5.670;2023-08-30T04:59:07;16.50;99.90
27559;DHT22;15002;52.028;5.670;2023-08-30T05:01:33;16.60;99.90
27559;DHT22;15002;52.028;5.670;2023-08-30T05:03:59;16.80;99.90
27559;DHT22;15002;52.028;5.670;2023-08-30T05:06:24;16.80;99.90
27559;DHT22;15002;52.028;5.670;2023-08-30T05:08:50;16.80;99.90
27559;DHT22;15002;52.028;5.670;2023-08-30T05:11:16;16.80;99.90
27559;DHT22;15002;52.028;5.670;2023-08-30T05:13:41;16.80;99.90
27559;DHT22;15002;52.028;5.670;2023-08-30T05:16:07;17.00;99.90
27559;DHT22;15002;52.028;5.670;2023-08-30T05:18:33;16.90;99.90
27559;DHT22;15002;52.028;5.670;2023-08-30T05:20:58;17.00;99.90
27559;DHT22;15002;52.028;5.670;2023-08-30T05:23:24;17.10;99.90
27559;DHT22;15002;52.028;5.670;2023-08-30T05:25:50;17.00;99.90
27559;DHT22;15002;52.028;5.670;2023-08-30T05:28:15;16.80;99.90
27559;DHT22;15002;52.028;5.670;2023-08-30T05:30:42;16.70;99.90
27559;DHT22;15002;52.028;5.670;2023-08-30T05:33:09;16.70;99.90
27559;DHT22;15002;52.028;5.670;2023-08-30T05:35:34;16.80;99.90
27559;DHT22;15002;52.028;5.670;2023-08-30T05:38:00;17.00;99.90
27559;DHT22;15002;52.028;5.670;2023-08-30T05:40:26;17.30;99.90
27559;DHT22;15002;52.028;5.670;2023-08-30T05:42:51;17.40;99.90
27559;DHT22;15002;52.028;5.670;2023-08-30T05:45:17;17.50;99.90
27559;DHT22;15002;52.028;5.670;2023-08-30T05:47:43;17.40;99.90
27559;DHT22;15002;52.028;5.670;2023-08-30T05:50:09;17.30;99.90
27559;DHT22;15002;52.028;5.670;2023-08-30T05:52:34;17.40;99.90
27559;DHT22;15002;52.028;5.670;2023-08-30T05:55:00;17.40;99.90
27559;DHT22;15002;52.028;5.670;2023-08-30T05:57:26;17.40;99.90
27559;DHT22;15002;52.028;5.670;2023-08-30T05:59:53;17.40;99.90
27559;DHT22;15002;52.028;5.670;2023-08-30T06:02:18;17.40;99.90
27559;DHT22;15002;52.028;5.670;2023-08-30T06:04:44;17.30;99.90
27559;DHT22;15002;52.028;5.670;2023-08-30T06:07:10;17.40;99.90
27559;DHT22;15002;52.028;5.670;2023-08-30T06:09:35;17.50;99.90
27559;DHT22;15002;52.028;5.670;2023-08-30T06:12:01;17.60;99.90
27559;DHT22;15002;52.028;5.670;2023-08-30T06:14:27;17.70;99.90
27559;DHT22;15002;52.028;5.670;2023-08-30T06:16:52;17.50;99.90
27559;DHT22;15002;52.028;5.670;2023-08-30T06:19:18;17.50;99.90
27559;DHT22;15002;52.028;5.670;2023-08-30T06:21:44;17.50;99.90
27559;DHT22;15002;52.028;5.670;2023-08-30T06:24:09;17.80;99.90
27559;DHT22;15002;52.028;5.670;2023-08-30T06:26:35;17.90;99.90
27559;DHT22;15002;52.028;5.670;2023-08-30T06:29:00;17.80;99.90
27559;DHT22;15002;52.028;5.670;2023-08-30T06:31:26;17.70;99.90
27559;DHT22;15002;52.028;5.670;2023-08-30T06:33:53;17.70;99.90
27559;DHT22;15002;52.028;5.670;2023-08-30T06:36:18;17.60;99.90
27559;DHT22;15002;52.028;5.670;2023-08-30T06:38:44;17.70;99.90
27559;DHT22;15002;52.028;5.670;2023-08-30T06:41:10;17.50;99.90
27559;DHT22;15002;52.028;5.670;2023-08-30T06:43:36;17.50;99.90
27559;DHT22;15002;52.028;5.670;2023-08-30T06:46:02;17.50;99.90
27559;DHT22;15002;52.028;5.670;2023-08-30T06:48:28;17.60;99.90
27559;DHT22;15002;52.028;5.670;2023-08-30T06:50:57;17.60;99.90
27559;DHT22;15002;52.028;5.670;2023-08-30T06:53:25;17.90;99.90
27559;DHT22;15002;52.028;5.670;2023-08-30T06:56:00;18.00;99.90
27559;DHT22;15002;52.028;5.670;2023-08-30T06:58:26;17.90;99.90
27559;DHT22;15002;52.028;5.670;2023-08-30T07:00:52;17.90;99.90
27559;DHT22;15002;52.028;5.670;2023-08-30T07:03:18;18.00;99.90
27559;DHT22;15002;52.028;5.670;2023-08-30T07:05:45;17.90;99.90
27559;DHT22;15002;52.028;5.670;2023-08-30T07:08:14;17.80;99.90
27559;DHT22;15002;52.028;5.670;2023-08-30T07:10:40;17.70;99.90
27559;DHT22;15002;52.028;5.670;2023-08-30T07:13:05;17.70;99.90
27559;DHT22;15002;52.028;5.670;2023-08-30T07:15:38;18.00;99.90
27559;DHT22;15002;52.028;5.670;2023-08-30T07:18:05;17.90;99.90
27559;DHT22;15002;52.028;5.670;2023-08-30T07:20:31;18.00;99.90
27559;DHT22;15002;52.028;5.670;2023-08-30T07:22:57;17.90;99.90
27559;DHT22;15002;52.028;5.670;2023-08-30T07:25:23;17.70;99.90
27559;DHT22;15002;52.028;5.670;2023-08-30T07:27:49;17.70;99.90
27559;DHT22;15002;52.028;5.670;2023-08-30T07:30:15;17.60;99.90
27559;DHT22;15002;52.028;5.670;2023-08-30T07:32:41;17.70;99.90
27559;DHT22;15002;52.028;5.670;2023-08-30T07:35:06;17.60;99.90
27559;DHT22;15002;52.028;5.670;2023-08-30T07:37:32;17.60;99.90
27559;DHT22;15002;52.028;5.670;2023-08-30T07:39:58;17.70;99.90
27559;DHT22;15002;52.028;5.670;2023-08-30T07:42:23;17.70;99.90
27559;DHT22;15002;52.028;5.670;2023-08-30T07:44:49;17.50;99.90
27559;DHT22;15002;52.028;5.670;2023-08-30T07:47:15;17.40;99.90
27559;DHT22;15002;52.028;5.670;2023-08-30T07:49:41;17.50;99.90
27559;DHT22;15002;52.028;5.670;2023-08-30T07:52:07;17.50;99.90
27559;DHT22;15002;52.028;5.670;2023-08-30T07:54:36;17.50;99.90
27559;DHT22;15002;52.028;5.670;2023-08-30T07:57:02;17.50;99.90
27559;DHT22;15002;52.028;5.670;2023-08-30T07:59:29;17.70;99.90
27559;DHT22;15002;52.028;5.670;2023-08-30T08:01:55;17.70;99.90
27559;DHT22;15002;52.028;5.670;2023-08-30T08:04:21;17.50;99.90
27559;DHT22;15002;52.028;5.670;2023-08-30T08:06:47;17.60;99.90
27559;DHT22;15002;52.028;5.670;2023-08-30T08:09:12;17.70;99.90
27559;DHT22;15002;52.028;5.670;2023-08-30T08:11:38;17.70;99.90
27559;DHT22;15002;52.028;5.670;2023-08-30T08:14:11;17.80;99.90
27559;DHT22;15002;52.028;5.670;2023-08-30T08:16:37;17.60;99.90
27559;DHT22;15002;52.028;5.670;2023-08-30T08:19:03;17.60;99.90
27559;DHT22;15002;52.028;5.670;2023-08-30T08:21:29;17.40;99.90
27559;DHT22;15002;52.028;5.670;2023-08-30T08:23:54;17.70;99.90
27559;DHT22;15002;52.028;5.670;2023-08-30T08:26:20;17.80;99.90
27559;DHT22;15002;52.028;5.670;2023-08-30T08:28:45;17.60;99.90
27559;DHT22;15002;52.028;5.670;2023-08-30T08:31:11;17.40;99.90
27559;DHT22;15002;52.028;5.670;2023-08-30T08:33:37;17.60;99.90
27559;DHT22;15002;52.028;5.670;2023-08-30T08:36:03;17.70;99.90
27559;DHT22;15002;52.028;5.670;2023-08-30T08:38:28;17.70;99.90
27559;DHT22;15002;52.028;5.670;2023-08-30T08:41:02;17.80;99.90
27559;DHT22;15002;52.028;5.670;2023-08-30T08:43:29;17.90;99.90
27559;DHT22;15002;52.028;5.670;2023-08-30T08:45:58;18.10;99.90
27559;DHT22;15002;52.028;5.670;2023-08-30T08:48:26;18.10;99.90
27559;DHT22;15002;52.028;5.670;2023-08-30T08:50:53;18.00;99.90
27559;DHT22;15002;52.028;5.670;2023-08-30T08:53:20;17.90;99.90
27559;DHT22;15002;52.028;5.670;2023-08-30T08:55:46;17.90;99.90
27559;DHT22;15002;52.028;5.670;2023-08-30T08:58:14;17.90;99.90
27559;DHT22;15002;52.028;5.670;2023-08-30T09:00:43;18.00;99.90
27559;DHT22;15002;52.028;5.670;2023-08-30T09:03:10;17.80;99.90
27559;DHT22;15002;52.028;5.670;2023-08-30T09:05:37;17.70;99.90
27559;DHT22;15002;52.028;5.670;2023-08-30T09:08:04;17.90;99.90
27559;DHT22;15002;52.028;5.670;2023-08-30T09:10:34;17.80;99.90
27559;DHT22;15002;52.028;5.670;2023-08-30T09:13:00;17.80;99.90
27559;DHT22;15002;52.028;5.670;2023-08-30T09:15:33;17.60;99.90
27559;DHT22;15002;52.028;5.670;2023-08-30T09:17:59;17.70;99.90
27559;DHT22;15002;52.028;5.670;2023-08-30T09:20:25;17.70;99.90
27559;DHT22;15002;52.028;5.670;2023-08-30T09:22:51;17.90;99.90
27559;DHT22;15002;52.028;5.670;2023-08-30T09:25:25;17.90;99.90
27559;DHT22;15002;52.028;5.670;2023-08-30T09:27:51;17.70;99.90
27559;DHT22;15002;52.028;5.670;2023-08-30T09:30:23;17.70;99.90
27559;DHT22;15002;52.028;5.670;2023-08-30T09:32:48;17.70;99.90
27559;DHT22;15002;52.028;5.670;2023-08-30T09:35:14;17.50;99.90
27559;DHT22;15002;52.028;5.670;2023-08-30T09:37:40;17.50;99.90
27559;DHT22;15002;52.028;5.670;2023-08-30T09:40:07;17.50;99.90
27559;DHT22;15002;52.028;5.670;2023-08-30T09:42:33;17.70;99.90
27559;DHT22;15002;52.028;5.670;2023-08-30T09:44:58;17.60;99.90
27559;DHT22;15002;52.028;5.670;2023-08-30T09:47:25;17.60;99.90
27559;DHT22;15002;52.028;5.670;2023-08-30T09:49:55;17.60;99.90
27559;DHT22;15002;52.028;5.670;2023-08-30T09:52:23;17.70;99.90
27559;DHT22;15002;52.028;5.670;2023-08-30T09:54:50;18.00;99.90
27559;DHT22;15002;52.028;5.670;2023-08-30T09:57:17;18.00;99.90
27559;DHT22;15002;52.028;5.670;2023-08-30T09:59:43;18.00;99.90
27559;DHT22;15002;52.028;5.670;2023-08-30T10:02:09;18.00;99.90
27559;DHT22;15002;52.028;5.670;2023-08-30T10:04:38;18.20;99.90
27559;DHT22;15002;52.028;5.670;2023-08-30T10:07:06;18.20;99.90
27559;DHT22;15002;52.028;5.670;2023-08-30T10:09:33;18.10;99.90
27559;DHT22;15002;52.028;5.670;2023-08-30T10:11:58;18.10;99.90
27559;DHT22;15002;52.028;5.670;2023-08-30T10:14:27;18.20;99.90
27559;DHT22;15002;52.028;5.670;2023-08-30T10:17:04;18.50;99.90
27559;DHT22;15002;52.028;5.670;2023-08-30T10:19:31;18.50;99.90
27559;DHT22;15002;52.028;5.670;2023-08-30T10:22:07;18.60;99.90
27559;DHT22;15002;52.028;5.670;2023-08-30T10:24:39;18.80;99.90
27559;DHT22;15002;52.028;5.670;2023-08-30T10:27:08;19.00;99.90
27559;DHT22;15002;52.028;5.670;2023-08-30T10:29:35;19.10;99.90
27559;DHT22;15002;52.028;5.670;2023-08-30T10:32:05;19.20;99.90
27559;DHT22;15002;52.028;5.670;2023-08-30T10:34:32;19.40;99.90
27559;DHT22;15002;52.028;5.670;2023-08-30T10:37:00;19.60;99.90
27559;DHT22;15002;52.028;5.670;2023-08-30T10:39:38;19.60;99.90
27559;DHT22;15002;52.028;5.670;2023-08-30T10:42:14;19.70;99.90
27559;DHT22;15002;52.028;5.670;2023-08-30T10:44:58;19.90;99.90
27559;DHT22;15002;52.028;5.670;2023-08-30T10:47:26;19.90;99.90
27559;DHT22;15002;52.028;5.670;2023-08-30T10:49:55;19.80;99.90
27559;DHT22;15002;52.028;5.670;2023-08-30T10:52:21;20.00;99.90
27559;DHT22;15002;52.028;5.670;2023-08-30T10:54:52;20.10;99.90
27559;DHT22;15002;52.028;5.670;2023-08-30T10:57:24;20.10;99.90
27559;DHT22;15002;52.028;5.670;2023-08-30T11:00:10;20.10;99.90
27559;DHT22;15002;52.028;5.670;2023-08-30T11:02:37;20.00;99.90
27559;DHT22;15002;52.028;5.670;2023-08-30T11:05:05;20.20;99.90
27559;DHT22;15002;52.028;5.670;2023-08-30T11:07:31;20.40;99.90
27559;DHT22;15002;52.028;5.670;2023-08-30T11:09:57;20.60;99.90
27559;DHT22;15002;52.028;5.670;2023-08-30T11:12:23;20.70;99.90
27559;DHT22;15002;52.028;5.670;2023-08-30T11:14:52;20.80;99.90
27559;DHT22;15002;52.028;5.670;2023-08-30T11:17:18;21.10;99.90
27559;DHT22;15002;52.028;5.670;2023-08-30T11:19:45;21.10;99.90
27559;DHT22;15002;52.028;5.670;2023-08-30T11:22:12;21.20;99.90
27559;DHT22;15002;52.028;5.670;2023-08-30T11:24:39;21.30;99.90
27559;DHT22;15002;52.028;5.670;2023-08-30T11:27:05;21.50;99.90
27559;DHT22;15002;52.028;5.670;2023-08-30T11:29:30;21.60;99.90
27559;DHT22;15002;52.028;5.670;2023-08-30T11:31:56;21.60;99.90
27559;DHT22;15002;52.028;5.670;2023-08-30T11:34:22;21.60;99.90
27559;DHT22;15002;52.028;5.670;2023-08-30T11:36:48;21.60;99.90
27559;DHT22;15002;52.028;5.670;2023-08-30T11:39:19;21.60;99.90
27559;DHT22;15002;52.028;5.670;2023-08-30T11:41:44;21.70;99.90
27559;DHT22;15002;52.028;5.670;2023-08-30T11:44:10;21.60;99.90
27559;DHT22;15002;52.028;5.670;2023-08-30T11:46:36;21.80;99.90
27559;DHT22;15002;52.028;5.670;2023-08-30T11:49:02;22.10;99.90
27559;DHT22;15002;52.028;5.670;2023-08-30T11:51:28;22.30;99.90
27559;DHT22;15002;52.028;5.670;2023-08-30T11:53:55;22.30;99.90
27559;DHT22;15002;52.028;5.670;2023-08-30T11:56:21;22.30;99.90
27559;DHT22;15002;52.028;5.670;2023-08-30T11:58:48;22.10;99.90
27559;DHT22;15002;52.028;5.670;2023-08-30T12:01:14;22.10;99.90
27559;DHT22;15002;52.028;5.670;2023-08-30T12:03:40;22.10;99.90
27559;DHT22;15002;52.028;5.670;2023-08-30T12:06:10;22.10;99.90
27559;DHT22;15002;52.028;5.670;2023-08-30T12:08:38;22.10;99.90
27559;DHT22;15002;52.028;5.670;2023-08-30T12:11:03;22.10;99.90
27559;DHT22;15002;52.028;5.670;2023-08-30T12:13:31;22.00;99.90
27559;DHT22;15002;52.028;5.670;2023-08-30T12:15:58;22.00;99.90
27559;DHT22;15002;52.028;5.670;2023-08-30T12:18:27;21.90;99.90
27559;DHT22;15002;52.028;5.670;2023-08-30T12:23:26;22.10;99.90
27559;DHT22;15002;52.028;5.670;2023-08-30T12:26:06;22.00;99.90
27559;DHT22;15002;52.028;5.670;2023-08-30T12:28:34;21.90;99.90
27559;DHT22;15002;52.028;5.670;2023-08-30T12:31:01;21.70;99.90
27559;DHT22;15002;52.028;5.670;2023-08-30T12:33:27;21.80;99.90
27559;DHT22;15002;52.028;5.670;2023-08-30T12:35:56;21.80;99.90
27559;DHT22;15002;52.028;5.670;2023-08-30T12:38:23;22.10;99.90
27559;DHT22;15002;52.028;5.670;2023-08-30T12:40:51;22.20;99.90
27559;DHT22;15002;52.028;5.670;2023-08-30T12:43:19;22.20;99.90
27559;DHT22;15002;52.028;5.670;2023-08-30T12:45:48;22.20;99.90
27559;DHT22;15002;52.028;5.670;2023-08-30T12:48:15;22.00;99.90
27559;DHT22;15002;52.028;5.670;2023-08-30T12:50:44;22.10;99.90
27559;DHT22;15002;52.028;5.670;2023-08-30T12:53:10;22.30;99.90
27559;DHT22;15002;52.028;5.670;2023-08-30T12:55:36;22.40;99.90
27559;DHT22;15002;52.028;5.670;2023-08-30T12:58:06;22.60;99.90
27559;DHT22;15002;52.028;5.670;2023-08-30T13:00:32;22.60;99.90
27559;DHT22;15002;52.028;5.670;2023-08-30T13:02:59;22.70;99.90
27559;DHT22;15002;52.028;5.670;2023-08-30T13:05:24;22.60;99.90
27559;DHT22;15002;52.028;5.670;2023-08-30T13:07:50;22.40;99.90
27559;DHT22;15002;52.028;5.670;2023-08-30T13:10:16;22.40;99.90
27559;DHT22;15002;52.028;5.670;2023-08-30T13:12:42;22.60;99.90
27559;DHT22;15002;52.028;5.670;2023-08-30T13:15:09;22.50;99.90
27559;DHT22;15002;52.028;5.670;2023-08-30T13:17:34;22.50;99.90
27559;DHT22;15002;52.028;5.670;2023-08-30T13:20:00;22.70;99.90
27559;DHT22;15002;52.028;5.670;2023-08-30T13:22:27;22.70;99.90
27559;DHT22;15002;52.028;5.670;2023-08-30T13:24:53;22.40;99.90
27559;DHT22;15002;52.028;5.670;2023-08-30T13:27:19;22.50;99.90
27559;DHT22;15002;52.028;5.670;2023-08-30T13:29:45;22.60;99.90
27559;DHT22;15002;52.028;5.670;2023-08-30T13:32:11;22.50;99.90
27559;DHT22;15002;52.028;5.670;2023-08-30T13:34:37;22.50;99.90
27559;DHT22;15002;52.028;5.670;2023-08-30T13:37:03;22.50;99.90
27559;DHT22;15002;52.028;5.670;2023-08-30T13:39:29;22.70;99.90
27559;DHT22;15002;52.028;5.670;2023-08-30T13:41:54;23.10;99.90
27559;DHT22;15002;52.028;5.670;2023-08-30T13:44:20;22.90;99.90
27559;DHT22;15002;52.028;5.670;2023-08-30T13:46:46;22.90;99.90
27559;DHT22;15002;52.028;5.670;2023-08-30T13:49:14;22.80;99.90
27559;DHT22;15002;52.028;5.670;2023-08-30T13:51:41;22.70;99.90
27559;DHT22;15002;52.028;5.670;2023-08-30T13:54:07;22.60;99.90
27559;DHT22;15002;52.028;5.670;2023-08-30T13:56:33;22.80;99.90
27559;DHT22;15002;52.028;5.670;2023-08-30T13:58:59;22.70;99.90
27559;DHT22;15002;52.028;5.670;2023-08-30T14:01:24;22.60;99.90
27559;DHT22;15002;52.028;5.670;2023-08-30T14:03:50;22.60;99.90
27559;DHT22;15002;52.028;5.670;2023-08-30T14:06:16;22.90;99.90
27559;DHT22;15002;52.028;5.670;2023-08-30T14:08:43;22.70;99.90
27559;DHT22;15002;52.028;5.670;2023-08-30T14:11:08;23.10;99.90
27559;DHT22;15002;52.028;5.670;2023-08-30T14:13:34;22.90;99.90
27559;DHT22;15002;52.028;5.670;2023-08-30T14:16:00;22.80;99.90
27559;DHT22;15002;52.028;5.670;2023-08-30T14:18:26;22.60;99.90
27559;DHT22;15002;52.028;5.670;2023-08-30T14:20:58;22.50;99.90
27559;DHT22;15002;52.028;5.670;2023-08-30T14:23:29;22.50;99.90
27559;DHT22;15002;52.028;5.670;2023-08-30T14:26:13;22.90;99.90
27559;DHT22;15002;52.028;5.670;2023-08-30T14:28:40;23.00;99.90
27559;DHT22;15002;52.028;5.670;2023-08-30T14:31:12;23.00;99.90
27559;DHT22;15002;52.028;5.670;2023-08-30T14:33:43;22.60;99.90
27559;DHT22;15002;52.028;5.670;2023-08-30T14:36:10;22.70;99.90
27559;DHT22;15002;52.028;5.670;2023-08-30T14:38:36;22.80;99.90
27559;DHT22;15002;52.028;5.670;2023-08-30T14:41:03;22.90;99.90
27559;DHT22;15002;52.028;5.670;2023-08-30T14:43:29;23.00;99.90
27559;DHT22;15002;52.028;5.670;2023-08-30T14:46:01;22.70;99.90
27559;DHT22;15002;52.028;5.670;2023-08-30T14:48:27;22.50;99.90
27559;DHT22;15002;52.028;5.670;2023-08-30T14:50:53;22.20;99.90
27559;DHT22;15002;52.028;5.670;2023-08-30T14:53:19;22.20;99.90
27559;DHT22;15002;52.028;5.670;2023-08-30T14:55:45;21.90;99.90
27559;DHT22;15002;52.028;5.670;2023-08-30T14:58:14;22.10;99.90
27559;DHT22;15002;52.028;5.670;2023-08-30T15:00:40;22.10;99.90
27559;DHT22;15002;52.028;5.670;2023-08-30T15:03:06;22.10;99.90
27559;DHT22;15002;52.028;5.670;2023-08-30T15:05:32;21.80;99.90
27559;DHT22;15002;52.028;5.670;2023-08-30T15:07:58;21.80;99.90
27559;DHT22;15002;52.028;5.670;2023-08-30T15:10:23;21.70;99.90
27559;DHT22;15002;52.028;5.670;2023-08-30T15:12:49;21.60;99.90
27559;DHT22;15002;52.028;5.670;2023-08-30T15:15:15;21.60;99.90
27559;DHT22;15002;52.028;5.670;2023-08-30T15:17:41;21.60;99.90
27559;DHT22;15002;52.028;5.670;2023-08-30T15:20:07;21.70;99.90
27559;DHT22;15002;52.028;5.670;2023-08-30T15:22:33;21.40;99.90
27559;DHT22;15002;52.028;5.670;2023-08-30T15:24:59;21.40;99.90
27559;DHT22;15002;52.028;5.670;2023-08-30T15:27:27;21.40;99.90
27559;DHT22;15002;52.028;5.670;2023-08-30T15:29:53;21.30;99.90
27559;DHT22;15002;52.028;5.670;2023-08-30T15:32:24;21.20;99.90
27559;DHT22;15002;52.028;5.670;2023-08-30T15:34:50;21.20;99.90
27559;DHT22;15002;52.028;5.670;2023-08-30T15:37:16;21.20;99.90